Blair, Texas
Current Conditions -  °F | °C
As of 3:58 AM on Sunday 26 Oct 2014 (Local Time) from KDYS Reporting Station
Clear Clear  
Wind Chill: 60°   Ceiling: Unl
Heat Index: 60°   Visibility: 10mi
Dew Point: 51°   Wind: 9mph
Humidity: 72%   Direction: 190°S
Pressure: 30.01"   Gusts: NA
Location:  32.3913°N, 100.009°W
Report Text: KDYS 260858Z AUTO 19008KT 10SM CLR 16/11 A3001 RMK AO2 SLP121 T01580108 57014 $
Loading
Personal Weather Stations






























Interactive Weather Map
Tropical Storm Tracking
New forecast layout! Learn more

10-Day Weather Forecast

Advertisements
Track Severe Weather on mobile